Time;durP1;ratioP1;P1;durP2;ratioP2;P2;SDS_P1;SDS_P2;PMS_P1;PMS_P2;Temp;Humidity;BMP_temperature;BMP_pressure;BME280_temperature;BME280_humidity;BME280_pressure;Samples;Min_cycle;Max_cycle;Signal;HPM_P1;HPM_P2
2022/04/08 00:02:05;;;;;;;6.07;1.48;;;;;;;;;;4926278;29;20042;-60
2022/04/08 00:04:32;;;;;;;5.15;0.75;;;;;;;;;;4925218;29;20107;-60
2022/04/08 00:06:58;;;;;;;9.85;1.30;;;;;;;;;;4925315;29;20095;-60
2022/04/08 00:09:23;;;;;;;5.10;0.93;;;;;;;;;;4923541;29;20069;-61
2022/04/08 00:11:49;;;;;;;10.50;1.77;;;;;;;;;;4927480;29;20217;-62
2022/04/08 00:14:14;;;;;;;5.18;1.23;;;;;;;;;;4922411;29;20032;-60
2022/04/08 00:16:40;;;;;;;7.68;1.50;;;;;;;;;;4924585;29;20055;-59
2022/04/08 00:19:05;;;;;;;4.43;1.00;;;;;;;;;;4928887;29;20063;-62
2022/04/08 00:21:31;;;;;;;6.20;1.10;;;;;;;;;;4922996;29;20040;-61
2022/04/08 00:23:57;;;;;;;6.63;1.17;;;;;;;;;;4926300;29;20324;-61
2022/04/08 00:26:22;;;;;;;5.82;1.02;;;;;;;;;;4928492;29;20035;-63
2022/04/08 00:28:48;;;;;;;5.85;1.20;;;;;;;;;;4923986;29;20261;-61
2022/04/08 00:31:13;;;;;;;8.30;1.40;;;;;;;;;;4925908;29;20148;-61
2022/04/08 00:33:38;;;;;;;7.65;1.20;;;;;;;;;;4927612;29;20175;-61
2022/04/08 00:36:04;;;;;;;5.68;0.80;;;;;;;;;;4928666;29;20329;-60
2022/04/08 00:38:30;;;;;;;8.57;1.30;;;;;;;;;;4923318;29;20032;-61
2022/04/08 00:40:55;;;;;;;5.35;1.67;;;;;;;;;;4925943;29;20024;-61
2022/04/08 00:43:35;;;;;;;5.25;1.08;;;;;;;;;;4925224;29;20103;-63
2022/04/08 00:46:09;;;;;;;8.05;1.23;;;;;;;;;;4921695;29;20036;-62
2022/04/08 00:48:36;;;;;;;5.80;1.02;;;;;;;;;;4924454;29;20035;-61
2022/04/08 00:51:04;;;;;;;5.72;1.42;;;;;;;;;;4924775;29;20056;-62
2022/04/08 00:53:31;;;;;;;9.82;1.10;;;;;;;;;;4924350;29;20032;-63
2022/04/08 00:55:57;;;;;;;7.38;1.30;;;;;;;;;;4926150;29;20095;-60
2022/04/08 00:58:24;;;;;;;8.68;1.42;;;;;;;;;;4924586;29;20051;-62
2022/04/08 01:00:49;;;;;;;8.60;1.50;;;;;;;;;;4924336;29;20042;-62
2022/04/08 01:03:15;;;;;;;15.88;1.90;;;;;;;;;;4922340;29;20229;-61
2022/04/08 01:05:41;;;;;;;7.78;1.20;;;;;;;;;;4925301;29;20024;-62
2022/04/08 01:08:10;;;;;;;12.85;1.70;;;;;;;;;;4928035;29;20031;-62
2022/04/08 01:10:36;;;;;;;10.43;1.27;;;;;;;;;;4923952;29;20031;-61
2022/04/08 01:13:02;;;;;;;8.48;1.38;;;;;;;;;;4925813;29;20024;-61
2022/04/08 01:15:28;;;;;;;5.43;1.20;;;;;;;;;;4925308;29;20032;-63
2022/04/08 01:17:53;;;;;;;6.72;0.90;;;;;;;;;;4927490;29;20110;-61
2022/04/08 01:20:19;;;;;;;7.20;1.20;;;;;;;;;;4926154;29;20095;-62
2022/04/08 01:22:44;;;;;;;7.35;1.48;;;;;;;;;;4923752;29;20052;-62
2022/04/08 01:25:12;;;;;;;10.57;1.30;;;;;;;;;;4922788;29;20309;-63
2022/04/08 01:27:38;;;;;;;7.28;1.02;;;;;;;;;;4925159;29;20102;-62
2022/04/08 01:30:05;;;;;;;8.13;1.38;;;;;;;;;;4919642;29;20040;-61
2022/04/08 01:32:31;;;;;;;14.98;1.88;;;;;;;;;;4924075;29;20048;-63
2022/04/08 01:34:56;;;;;;;12.43;1.45;;;;;;;;;;4923034;29;20036;-62
2022/04/08 01:37:22;;;;;;;8.07;1.40;;;;;;;;;;4918805;29;20241;-62
2022/04/08 01:39:48;;;;;;;7.47;1.30;;;;;;;;;;4919004;29;20028;-60
2022/04/08 01:42:13;;;;;;;12.93;2.38;;;;;;;;;;4920976;29;20020;-62
2022/04/08 01:44:39;;;;;;;8.60;1.40;;;;;;;;;;4918630;29;20112;-61
2022/04/08 01:47:05;;;;;;;7.97;1.30;;;;;;;;;;4922605;29;20024;-60
2022/04/08 01:49:31;;;;;;;8.27;1.30;;;;;;;;;;4923256;29;20325;-63
2022/04/08 01:51:57;;;;;;;10.05;1.50;;;;;;;;;;4922891;29;20054;-63
2022/04/08 01:54:22;;;;;;;9.85;1.67;;;;;;;;;;4919734;29;20032;-63
2022/04/08 01:56:48;;;;;;;9.80;1.65;;;;;;;;;;4927105;29;20095;-64
2022/04/08 01:59:14;;;;;;;6.72;1.38;;;;;;;;;;4924537;29;20327;-62
2022/04/08 02:01:40;;;;;;;13.05;1.63;;;;;;;;;;4923074;29;20099;-61
2022/04/08 02:04:05;;;;;;;13.40;1.65;;;;;;;;;;4921420;29;20075;-62
2022/04/08 02:06:31;;;;;;;7.43;1.40;;;;;;;;;;4924483;29;20040;-61
2022/04/08 02:08:57;;;;;;;9.82;2.08;;;;;;;;;;4927612;29;20242;-61
2022/04/08 02:11:23;;;;;;;8.40;1.10;;;;;;;;;;4925616;29;20076;-62
2022/04/08 02:13:49;;;;;;;7.05;1.48;;;;;;;;;;4923237;29;20095;-62
2022/04/08 02:16:14;;;;;;;8.40;1.15;;;;;;;;;;4923134;29;20024;-61
2022/04/08 02:18:40;;;;;;;8.10;2.05;;;;;;;;;;4924923;29;20058;-61
2022/04/08 02:21:06;;;;;;;11.43;1.48;;;;;;;;;;4924350;29;20028;-62
2022/04/08 02:23:33;;;;;;;3.88;1.10;;;;;;;;;;4923320;29;20392;-61
2022/04/08 02:25:58;;;;;;;8.45;1.27;;;;;;;;;;4925529;29;20173;-61
2022/04/08 02:28:24;;;;;;;6.63;1.25;;;;;;;;;;4919891;29;20043;-61
2022/04/08 02:30:52;;;;;;;8.07;0.85;;;;;;;;;;4922351;29;20028;-61
2022/04/08 02:33:18;;;;;;;2.60;0.60;;;;;;;;;;4921436;29;20036;-61
2022/04/08 02:35:43;;;;;;;6.03;0.80;;;;;;;;;;4919714;29;20036;-61
2022/04/08 02:38:09;;;;;;;1.85;0.50;;;;;;;;;;4926345;29;20262;-61
2022/04/08 02:40:35;;;;;;;4.43;0.63;;;;;;;;;;4908160;29;20028;-61
2022/04/08 02:43:01;;;;;;;3.58;0.50;;;;;;;;;;4926562;29;20112;-61
2022/04/08 02:45:26;;;;;;;2.28;0.50;;;;;;;;;;4922691;29;20043;-61
2022/04/08 02:47:52;;;;;;;2.50;0.60;;;;;;;;;;4923971;29;20040;-62
2022/04/08 02:50:18;;;;;;;1.70;0.60;;;;;;;;;;4924759;29;20038;-62
2022/04/08 02:52:43;;;;;;;1.77;0.57;;;;;;;;;;4923855;29;20321;-61
2022/04/08 02:55:09;;;;;;;3.15;0.50;;;;;;;;;;4926782;29;20044;-61
2022/04/08 02:57:44;;;;;;;2.45;0.63;;;;;;;;;;4923128;29;20032;-62
2022/04/08 03:00:12;;;;;;;5.15;0.82;;;;;;;;;;4922252;29;20039;-61
2022/04/08 03:02:37;;;;;;;1.13;0.50;;;;;;;;;;4920799;29;20036;-61
2022/04/08 03:05:06;;;;;;;2.03;0.57;;;;;;;;;;4923362;29;20035;-62
2022/04/08 03:07:34;;;;;;;0.75;0.30;;;;;;;;;;4920941;29;20036;-62
2022/04/08 03:10:04;;;;;;;1.25;0.45;;;;;;;;;;4922873;29;20055;-62
2022/04/08 03:12:30;;;;;;;2.35;0.85;;;;;;;;;;4918934;29;20045;-61
2022/04/08 03:14:56;;;;;;;1.08;0.40;;;;;;;;;;4919862;29;20074;-63
2022/04/08 03:17:22;;;;;;;0.52;0.20;;;;;;;;;;4922532;29;20530;-62
2022/04/08 03:19:47;;;;;;;4.05;0.50;;;;;;;;;;4923929;29;20031;-66
2022/04/08 03:22:13;;;;;;;1.42;0.55;;;;;;;;;;4926888;29;20032;-61
2022/04/08 03:24:38;;;;;;;1.35;0.30;;;;;;;;;;4924283;29;20107;-62
2022/04/08 03:27:04;;;;;;;2.03;0.47;;;;;;;;;;4926474;29;20140;-66
2022/04/08 03:29:29;;;;;;;2.33;0.60;;;;;;;;;;4925234;29;20060;-63
2022/04/08 03:31:54;;;;;;;3.33;0.40;;;;;;;;;;4924402;29;20036;-63
2022/04/08 03:34:20;;;;;;;0.75;0.40;;;;;;;;;;4925181;29;20083;-64
2022/04/08 03:36:47;;;;;;;2.22;0.35;;;;;;;;;;4927323;29;20055;-62
2022/04/08 03:39:13;;;;;;;1.30;0.60;;;;;;;;;;4924535;29;20087;-62
2022/04/08 03:41:39;;;;;;;1.38;0.40;;;;;;;;;;4925797;29;20048;-63
2022/04/08 03:44:05;;;;;;;0.82;0.40;;;;;;;;;;4927618;29;20036;-62
2022/04/08 03:46:30;;;;;;;1.50;0.52;;;;;;;;;;4925028;29;20064;-62
2022/04/08 03:48:56;;;;;;;0.68;0.50;;;;;;;;;;4927471;29;20294;-62
2022/04/08 03:51:21;;;;;;;1.77;0.60;;;;;;;;;;4926034;29;20345;-61
2022/04/08 03:53:47;;;;;;;2.15;0.55;;;;;;;;;;4928311;29;20032;-62
2022/04/08 03:56:12;;;;;;;1.48;0.50;;;;;;;;;;4929943;29;20023;-61
2022/04/08 03:58:38;;;;;;;4.10;0.70;;;;;;;;;;4926216;29;20314;-62
2022/04/08 04:01:03;;;;;;;1.17;0.63;;;;;;;;;;4926504;29;20098;-61
2022/04/08 04:03:29;;;;;;;1.92;0.73;;;;;;;;;;4925997;29;20112;-62
2022/04/08 04:05:54;;;;;;;2.50;0.65;;;;;;;;;;4925819;29;20206;-61
2022/04/08 04:08:19;;;;;;;1.25;0.60;;;;;;;;;;4923970;29;20040;-61
2022/04/08 04:10:46;;;;;;;2.50;0.47;;;;;;;;;;4925399;29;20103;-61
2022/04/08 04:13:12;;;;;;;3.05;0.80;;;;;;;;;;4927247;29;20566;-61
2022/04/08 04:15:38;;;;;;;2.25;0.80;;;;;;;;;;4927896;29;20036;-60
2022/04/08 04:18:04;;;;;;;5.35;0.77;;;;;;;;;;4925011;29;20024;-62
2022/04/08 04:20:30;;;;;;;2.35;0.98;;;;;;;;;;4925314;29;20166;-61
2022/04/08 04:22:55;;;;;;;3.70;0.80;;;;;;;;;;4929390;29;20045;-62
2022/04/08 04:25:21;;;;;;;2.63;0.73;;;;;;;;;;4923589;29;20364;-61
2022/04/08 04:27:46;;;;;;;1.55;0.40;;;;;;;;;;4925846;29;20229;-62
2022/04/08 04:30:11;;;;;;;4.18;0.60;;;;;;;;;;4925321;29;20289;-61
2022/04/08 04:32:37;;;;;;;3.03;0.50;;;;;;;;;;4925591;29;20032;-62
2022/04/08 04:35:06;;;;;;;3.20;0.80;;;;;;;;;;4924961;29;20309;-62
2022/04/08 04:37:35;;;;;;;1.88;0.65;;;;;;;;;;4924442;29;20062;-61
2022/04/08 04:40:01;;;;;;;2.78;0.50;;;;;;;;;;4925389;29;20431;-63
2022/04/08 04:42:28;;;;;;;2.40;0.60;;;;;;;;;;4924457;29;20074;-62
2022/04/08 04:44:57;;;;;;;2.67;0.60;;;;;;;;;;4924510;29;20062;-63
2022/04/08 04:47:23;;;;;;;4.00;1.00;;;;;;;;;;4921219;29;20307;-62
2022/04/08 04:49:48;;;;;;;3.42;0.50;;;;;;;;;;4923836;29;20031;-63
2022/04/08 04:52:14;;;;;;;2.17;0.60;;;;;;;;;;4925059;29;20036;-61
2022/04/08 04:54:41;;;;;;;2.75;0.70;;;;;;;;;;4925359;29;20241;-60
2022/04/08 04:57:07;;;;;;;4.53;0.75;;;;;;;;;;4923290;29;20126;-61
2022/04/08 04:59:33;;;;;;;4.78;0.70;;;;;;;;;;4924145;29;20043;-61
2022/04/08 05:01:59;;;;;;;2.92;0.85;;;;;;;;;;4924452;29;20036;-61
2022/04/08 05:04:24;;;;;;;6.85;0.93;;;;;;;;;;4924953;29;20036;-61
2022/04/08 05:06:50;;;;;;;3.42;0.75;;;;;;;;;;4921592;29;20031;-60
2022/04/08 05:09:15;;;;;;;3.17;0.90;;;;;;;;;;4923902;29;20032;-60
2022/04/08 05:11:41;;;;;;;3.85;0.90;;;;;;;;;;4923395;29;20265;-60
2022/04/08 05:14:06;;;;;;;4.78;0.82;;;;;;;;;;4924066;29;20040;-60
2022/04/08 05:16:31;;;;;;;3.47;0.80;;;;;;;;;;4920804;29;20029;-61
2022/04/08 05:18:57;;;;;;;2.45;1.02;;;;;;;;;;4924904;29;20295;-61
2022/04/08 05:21:22;;;;;;;2.63;0.75;;;;;;;;;;4924102;29;20107;-61
2022/04/08 05:23:48;;;;;;;1.92;0.65;;;;;;;;;;4924391;29;20199;-61
2022/04/08 05:26:14;;;;;;;2.00;0.70;;;;;;;;;;4923294;29;20229;-60
2022/04/08 05:28:39;;;;;;;4.57;1.13;;;;;;;;;;4928554;29;20039;-60
2022/04/08 05:31:05;;;;;;;1.50;0.55;;;;;;;;;;4926610;29;20059;-61
2022/04/08 05:33:31;;;;;;;3.13;0.73;;;;;;;;;;4923828;29;20043;-60
2022/04/08 05:35:56;;;;;;;2.33;0.80;;;;;;;;;;4924537;29;20059;-60
2022/04/08 05:38:21;;;;;;;2.95;0.88;;;;;;;;;;4924940;29;20047;-60
2022/04/08 05:40:49;;;;;;;2.63;0.63;;;;;;;;;;4923052;29;20059;-61
2022/04/08 05:43:15;;;;;;;3.30;0.82;;;;;;;;;;4924312;29;20043;-60
2022/04/08 05:45:41;;;;;;;1.33;0.55;;;;;;;;;;4928448;29;20221;-62
2022/04/08 05:48:06;;;;;;;3.00;0.60;;;;;;;;;;4923883;29;20027;-60
2022/04/08 05:50:32;;;;;;;3.13;0.60;;;;;;;;;;4924296;29;20095;-61
2022/04/08 05:52:58;;;;;;;2.20;0.65;;;;;;;;;;4921703;29;20028;-62
2022/04/08 05:55:23;;;;;;;3.83;0.70;;;;;;;;;;4926907;29;20301;-62
2022/04/08 05:57:48;;;;;;;2.50;0.70;;;;;;;;;;4924511;29;20080;-61
2022/04/08 06:00:15;;;;;;;2.83;0.80;;;;;;;;;;4923777;29;20091;-61
2022/04/08 06:02:45;;;;;;;4.38;0.75;;;;;;;;;;4923096;29;20299;-62
2022/04/08 06:05:11;;;;;;;3.53;0.77;;;;;;;;;;4928148;29;20262;-62
2022/04/08 06:07:54;;;;;;;4.72;1.08;;;;;;;;;;4924757;29;20031;-62
2022/04/08 06:10:22;;;;;;;3.30;0.90;;;;;;;;;;4922316;29;20097;-62
2022/04/08 06:12:55;;;;;;;4.05;0.98;;;;;;;;;;4923954;29;20364;-60
2022/04/08 06:15:20;;;;;;;5.60;0.70;;;;;;;;;;4923809;29;20032;-60
2022/04/08 06:17:46;;;;;;;7.20;0.82;;;;;;;;;;4921853;29;20099;-62
2022/04/08 06:20:15;;;;;;;3.65;0.70;;;;;;;;;;4922582;29;20028;-61
2022/04/08 06:22:41;;;;;;;5.55;1.10;;;;;;;;;;4923335;29;20032;-61
2022/04/08 06:25:19;;;;;;;5.13;1.20;;;;;;;;;;4923321;29;20098;-60
2022/04/08 06:27:54;;;;;;;4.60;1.33;;;;;;;;;;4917424;29;20040;-61
2022/04/08 06:30:19;;;;;;;3.95;1.05;;;;;;;;;;4921950;29;20282;-59
2022/04/08 06:32:44;;;;;;;3.97;1.10;;;;;;;;;;4926544;29;20024;-59
2022/04/08 06:35:10;;;;;;;7.50;1.33;;;;;;;;;;4923010;29;20043;-62
2022/04/08 06:37:36;;;;;;;5.72;1.40;;;;;;;;;;4923501;29;20040;-62
2022/04/08 06:40:04;;;;;;;4.95;1.20;;;;;;;;;;4923041;29;20059;-62
2022/04/08 06:42:29;;;;;;;4.68;1.17;;;;;;;;;;4923404;29;20225;-62
2022/04/08 06:44:55;;;;;;;7.40;1.75;;;;;;;;;;4924431;29;20051;-60
2022/04/08 06:47:20;;;;;;;5.38;1.30;;;;;;;;;;4929820;29;20052;-60
2022/04/08 06:49:46;;;;;;;6.88;1.17;;;;;;;;;;4922714;29;20116;-60
2022/04/08 06:52:12;;;;;;;6.93;1.65;;;;;;;;;;4922934;29;20036;-60
2022/04/08 06:54:39;;;;;;;6.63;1.27;;;;;;;;;;4925637;29;20312;-61
2022/04/08 06:57:04;;;;;;;6.90;1.42;;;;;;;;;;4924244;29;20028;-61
2022/04/08 06:59:29;;;;;;;9.30;1.83;;;;;;;;;;4924431;29;20040;-62
2022/04/08 07:01:55;;;;;;;4.45;1.30;;;;;;;;;;4925886;29;20332;-61
2022/04/08 07:04:20;;;;;;;4.93;1.17;;;;;;;;;;4926715;29;20060;-61
2022/04/08 07:06:45;;;;;;;10.32;1.58;;;;;;;;;;4926750;29;20043;-60
2022/04/08 07:09:11;;;;;;;5.30;1.17;;;;;;;;;;4926655;29;20103;-62
2022/04/08 07:11:36;;;;;;;9.85;1.80;;;;;;;;;;4929449;29;20031;-60
2022/04/08 07:14:02;;;;;;;10.05;1.52;;;;;;;;;;4926474;29;20028;-61
2022/04/08 07:16:27;;;;;;;12.75;1.90;;;;;;;;;;4926672;29;20088;-61
2022/04/08 07:18:53;;;;;;;9.80;1.90;;;;;;;;;;4925533;29;20253;-62
2022/04/08 07:21:19;;;;;;;12.15;2.13;;;;;;;;;;4927255;29;20070;-61
2022/04/08 07:23:44;;;;;;;9.73;1.52;;;;;;;;;;4925069;29;20286;-60
2022/04/08 07:26:10;;;;;;;7.93;1.95;;;;;;;;;;4931780;29;20047;-61
2022/04/08 07:28:35;;;;;;;10.55;1.50;;;;;;;;;;4925892;29;20336;-60
2022/04/08 07:31:01;;;;;;;8.73;1.98;;;;;;;;;;4927535;29;20032;-61
2022/04/08 07:33:26;;;;;;;6.30;1.35;;;;;;;;;;4926512;29;20048;-61
2022/04/08 07:35:52;;;;;;;8.18;1.75;;;;;;;;;;4927327;29;20261;-62
2022/04/08 07:38:18;;;;;;;13.55;1.90;;;;;;;;;;4928934;29;20106;-61
2022/04/08 07:40:44;;;;;;;8.88;1.50;;;;;;;;;;4927121;29;20174;-63
2022/04/08 07:43:09;;;;;;;12.55;1.92;;;;;;;;;;4926602;29;20038;-61
2022/04/08 07:45:35;;;;;;;10.73;2.13;;;;;;;;;;4926474;29;20032;-61
2022/04/08 07:48:00;;;;;;;10.55;1.52;;;;;;;;;;4926255;29;20280;-60
2022/04/08 07:50:27;;;;;;;10.95;1.60;;;;;;;;;;4925698;29;20096;-59
2022/04/08 07:52:53;;;;;;;10.10;1.52;;;;;;;;;;4927755;29;20308;-62
2022/04/08 07:55:20;;;;;;;13.00;1.88;;;;;;;;;;4924953;29;20028;-60
2022/04/08 07:57:52;;;;;;;8.48;2.10;;;;;;;;;;4928656;29;20047;-60
2022/04/08 08:00:25;;;;;;;8.98;1.75;;;;;;;;;;4926234;29;20965;-61
2022/04/08 08:02:51;;;;;;;10.80;1.98;;;;;;;;;;4922163;29;20071;-62
2022/04/08 08:05:20;;;;;;;10.95;1.92;;;;;;;;;;4926942;29;20111;-61
2022/04/08 08:07:59;;;;;;;12.38;1.30;;;;;;;;;;4922402;29;20119;-62
2022/04/08 08:10:39;;;;;;;13.10;1.88;;;;;;;;;;4919139;29;20243;-60
2022/04/08 08:13:04;;;;;;;13.43;2.03;;;;;;;;;;4903681;29;20140;-61
2022/04/08 08:15:32;;;;;;;8.63;1.67;;;;;;;;;;4898608;29;20141;-59
2022/04/08 08:17:58;;;;;;;7.25;1.60;;;;;;;;;;4912550;29;20243;-60
2022/04/08 08:20:25;;;;;;;11.93;1.60;;;;;;;;;;4924957;29;20040;-63
2022/04/08 08:22:51;;;;;;;6.40;1.60;;;;;;;;;;4924731;29;20183;-60
2022/04/08 08:25:18;;;;;;;6.78;2.00;;;;;;;;;;4924889;29;20116;-59
2022/04/08 08:27:46;;;;;;;10.05;1.67;;;;;;;;;;4927060;29;20328;-59
2022/04/08 08:30:14;;;;;;;9.30;1.55;;;;;;;;;;4927934;29;20032;-60
2022/04/08 08:32:42;;;;;;;10.43;2.03;;;;;;;;;;4924904;29;20044;-61
2022/04/08 08:35:09;;;;;;;6.25;1.42;;;;;;;;;;4923744;29;20044;-61
2022/04/08 08:37:35;;;;;;;8.88;1.50;;;;;;;;;;4921197;29;20057;-60
2022/04/08 08:40:03;;;;;;;8.98;1.50;;;;;;;;;;4925090;29;20209;-61
2022/04/08 08:42:29;;;;;;;7.03;1.52;;;;;;;;;;4926492;29;20036;-59
2022/04/08 08:44:55;;;;;;;13.68;1.67;;;;;;;;;;4926723;29;20099;-60
2022/04/08 08:47:21;;;;;;;10.32;1.85;;;;;;;;;;4924464;29;20055;-61
2022/04/08 08:49:50;;;;;;;6.22;1.30;;;;;;;;;;4925584;29;20099;-62
2022/04/08 08:52:18;;;;;;;8.48;1.67;;;;;;;;;;4923671;29;20032;-61
2022/04/08 08:54:45;;;;;;;9.30;1.60;;;;;;;;;;4926148;29;20201;-62
2022/04/08 08:57:10;;;;;;;7.00;1.50;;;;;;;;;;4925744;29;20035;-62
2022/04/08 08:59:37;;;;;;;7.28;1.67;;;;;;;;;;4926393;29;20328;-62
2022/04/08 09:02:03;;;;;;;6.38;1.40;;;;;;;;;;4923779;29;20066;-62
2022/04/08 09:04:29;;;;;;;7.30;1.38;;;;;;;;;;4924608;29;20345;-62
2022/04/08 09:06:55;;;;;;;6.22;1.38;;;;;;;;;;4924577;29;20040;-61
2022/04/08 09:09:31;;;;;;;13.07;1.77;;;;;;;;;;4921887;29;20264;-63
2022/04/08 09:12:08;;;;;;;11.93;1.65;;;;;;;;;;4925850;29;20058;-62
2022/04/08 09:14:35;;;;;;;8.00;1.75;;;;;;;;;;4924427;29;20043;-62
2022/04/08 09:17:01;;;;;;;9.65;1.83;;;;;;;;;;4924626;29;20099;-62
2022/04/08 09:19:31;;;;;;;8.13;1.55;;;;;;;;;;4921734;29;20023;-62
2022/04/08 09:21:56;;;;;;;8.35;1.90;;;;;;;;;;4921653;29;20035;-62
2022/04/08 09:24:23;;;;;;;9.70;2.15;;;;;;;;;;4918988;29;20032;-62
2022/04/08 09:26:52;;;;;;;9.32;2.00;;;;;;;;;;4924091;29;20040;-62
2022/04/08 09:29:22;;;;;;;10.65;1.70;;;;;;;;;;4925186;29;20278;-62
2022/04/08 09:31:49;;;;;;;9.73;2.45;;;;;;;;;;4924223;29;20032;-61
2022/04/08 09:34:17;;;;;;;9.73;2.17;;;;;;;;;;4924500;29;20040;-62
2022/04/08 09:36:43;;;;;;;7.85;2.30;;;;;;;;;;4924974;29;20099;-60
2022/04/08 09:39:10;;;;;;;8.73;1.92;;;;;;;;;;4925671;29;20036;-61
2022/04/08 09:41:40;;;;;;;8.93;1.98;;;;;;;;;;4920983;29;20039;-61
2022/04/08 09:44:09;;;;;;;5.80;1.42;;;;;;;;;;4921313;29;20031;-61
2022/04/08 09:46:36;;;;;;;6.75;1.40;;;;;;;;;;4924188;29;20332;-61
2022/04/08 09:49:06;;;;;;;8.85;2.05;;;;;;;;;;4926635;29;20230;-60
2022/04/08 09:51:39;;;;;;;12.15;2.13;;;;;;;;;;4925735;29;20098;-61
2022/04/08 09:54:08;;;;;;;7.82;1.67;;;;;;;;;;4921835;29;20062;-61
2022/04/08 09:56:35;;;;;;;9.18;1.70;;;;;;;;;;4917150;29;20036;-61
2022/04/08 09:59:21;;;;;;;8.23;1.50;;;;;;;;;;4922232;29;20036;-60
2022/04/08 10:01:47;;;;;;;8.88;1.73;;;;;;;;;;4920832;29;20050;-60
2022/04/08 10:04:14;;;;;;;6.32;1.45;;;;;;;;;;4921522;29;20027;-60
2022/04/08 10:06:41;;;;;;;9.63;2.10;;;;;;;;;;4917054;29;20264;-60
2022/04/08 10:09:13;;;;;;;7.07;1.30;;;;;;;;;;4921162;29;20083;-61
2022/04/08 10:12:02;;;;;;;10.43;1.25;;;;;;;;;;4919531;29;20036;-60
2022/04/08 10:14:28;;;;;;;5.40;1.10;;;;;;;;;;4918371;29;20108;-61
2022/04/08 10:16:55;;;;;;;7.95;1.20;;;;;;;;;;4921878;29;20024;-61
2022/04/08 10:19:24;;;;;;;6.07;1.40;;;;;;;;;;4921824;29;20048;-60
2022/04/08 10:21:54;;;;;;;4.93;1.10;;;;;;;;;;4921643;29;20036;-60
2022/04/08 10:24:25;;;;;;;6.82;1.67;;;;;;;;;;4923666;29;20035;-60
2022/04/08 10:26:57;;;;;;;5.82;1.50;;;;;;;;;;4922195;29;20186;-60
2022/04/08 10:29:23;;;;;;;4.90;1.45;;;;;;;;;;4923430;29;20224;-60
2022/04/08 10:31:56;;;;;;;5.60;1.30;;;;;;;;;;4924125;29;20103;-59
2022/04/08 10:34:23;;;;;;;6.13;1.52;;;;;;;;;;4920683;29;20059;-60
2022/04/08 10:36:49;;;;;;;6.85;1.25;;;;;;;;;;4921698;29;20028;-61
2022/04/08 10:39:18;;;;;;;6.13;1.60;;;;;;;;;;4921849;29;20063;-61
2022/04/08 10:42:06;;;;;;;4.78;1.48;;;;;;;;;;4921967;29;20032;-61
2022/04/08 10:44:37;;;;;;;2.50;1.17;;;;;;;;;;4923864;29;20106;-61
2022/04/08 10:47:13;;;;;;;3.55;1.42;;;;;;;;;;4922620;29;20158;-60
2022/04/08 10:49:56;;;;;;;6.85;1.45;;;;;;;;;;4922963;29;20036;-61
2022/04/08 10:52:23;;;;;;;6.72;1.58;;;;;;;;;;4918798;29;20040;-61
2022/04/08 10:54:50;;;;;;;6.05;1.30;;;;;;;;;;4921229;29;20135;-61
2022/04/08 10:57:36;;;;;;;6.88;1.70;;;;;;;;;;4921157;29;20028;-59
2022/04/08 11:00:07;;;;;;;2.55;0.77;;;;;;;;;;4923042;29;20224;-60
2022/04/08 11:02:37;;;;;;;4.47;0.80;;;;;;;;;;4920641;29;20376;-61
2022/04/08 11:05:04;;;;;;;6.38;1.02;;;;;;;;;;4922128;29;20107;-61
2022/04/08 11:07:31;;;;;;;3.47;0.90;;;;;;;;;;4921036;29;20037;-61
2022/04/08 11:09:57;;;;;;;4.70;1.00;;;;;;;;;;4924191;29;20055;-61
2022/04/08 11:12:22;;;;;;;3.88;1.05;;;;;;;;;;4922709;29;20321;-61
2022/04/08 11:14:54;;;;;;;4.10;0.80;;;;;;;;;;4921337;29;20095;-61
2022/04/08 11:17:21;;;;;;;2.90;0.98;;;;;;;;;;4924498;29;20052;-61
2022/04/08 11:19:50;;;;;;;2.70;0.73;;;;;;;;;;4921704;29;20050;-61
2022/04/08 11:22:15;;;;;;;1.85;0.80;;;;;;;;;;4922797;29;20032;-62
2022/04/08 11:24:42;;;;;;;3.53;1.20;;;;;;;;;;4916478;29;20310;-62
2022/04/08 11:27:09;;;;;;;2.92;0.80;;;;;;;;;;4921862;29;20055;-62
2022/04/08 11:29:36;;;;;;;2.85;0.77;;;;;;;;;;4921277;29;20063;-62
2022/04/08 11:32:12;;;;;;;2.95;0.75;;;;;;;;;;4923340;29;20039;-63
2022/04/08 11:34:38;;;;;;;3.03;0.98;;;;;;;;;;4922313;29;20036;-61
2022/04/08 11:37:04;;;;;;;3.92;0.90;;;;;;;;;;4922166;29;20289;-62
2022/04/08 11:39:33;;;;;;;4.60;1.30;;;;;;;;;;4918674;29;20028;-61
2022/04/08 11:42:03;;;;;;;2.42;0.70;;;;;;;;;;4920538;29;20032;-64
2022/04/08 11:44:29;;;;;;;4.32;0.73;;;;;;;;;;4920205;29;20302;-61
2022/04/08 11:47:05;;;;;;;1.30;0.65;;;;;;;;;;4923779;29;20031;-63
2022/04/08 11:49:31;;;;;;;2.35;0.77;;;;;;;;;;4920577;29;20044;-60
2022/04/08 11:52:02;;;;;;;2.88;0.70;;;;;;;;;;4925729;29;20084;-60
2022/04/08 11:54:27;;;;;;;2.00;0.60;;;;;;;;;;4923770;29;20044;-60
2022/04/08 11:56:53;;;;;;;4.05;0.80;;;;;;;;;;4921837;29;20300;-61
2022/04/08 11:59:19;;;;;;;4.30;0.80;;;;;;;;;;4925154;29;20056;-60
2022/04/08 12:01:45;;;;;;;2.60;0.68;;;;;;;;;;4925133;29;20063;-61
2022/04/08 12:04:12;;;;;;;3.25;0.68;;;;;;;;;;4927220;29;20233;-60
2022/04/08 12:06:41;;;;;;;2.78;0.50;;;;;;;;;;4924118;29;20056;-60
2022/04/08 12:09:11;;;;;;;2.83;0.75;;;;;;;;;;4921799;29;20095;-59
2022/04/08 12:11:42;;;;;;;1.30;0.60;;;;;;;;;;4923852;29;20103;-59
2022/04/08 12:14:09;;;;;;;1.85;0.80;;;;;;;;;;4925477;29;20032;-60
2022/04/08 12:16:38;;;;;;;1.48;0.52;;;;;;;;;;4920221;29;20044;-60
2022/04/08 12:19:04;;;;;;;1.75;0.68;;;;;;;;;;4923446;29;20047;-60
2022/04/08 12:21:31;;;;;;;3.83;1.00;;;;;;;;;;4924190;29;20033;-60
2022/04/08 12:24:02;;;;;;;3.28;0.80;;;;;;;;;;4923723;29;20043;-62
2022/04/08 12:26:32;;;;;;;1.95;0.70;;;;;;;;;;4922851;29;20104;-61
2022/04/08 12:29:27;;;;;;;3.60;0.50;;;;;;;;;;4922446;29;20093;-61
2022/04/08 12:31:59;;;;;;;0.60;0.40;;;;;;;;;;4924548;29;20274;-60
2022/04/08 12:34:25;;;;;;;2.80;0.40;;;;;;;;;;4923139;29;20340;-61
2022/04/08 12:36:50;;;;;;;1.67;0.65;;;;;;;;;;4924244;29;20281;-61
2022/04/08 12:39:16;;;;;;;1.70;0.50;;;;;;;;;;4921364;29;20091;-61
2022/04/08 12:41:44;;;;;;;2.00;0.68;;;;;;;;;;4927376;29;20194;-62
2022/04/08 12:44:10;;;;;;;2.28;0.60;;;;;;;;;;4925022;29;20032;-61
2022/04/08 12:46:36;;;;;;;1.55;0.70;;;;;;;;;;4925429;29;20071;-61
2022/04/08 12:49:02;;;;;;;1.55;0.50;;;;;;;;;;4919602;29;20122;-61
2022/04/08 12:51:28;;;;;;;1.02;0.60;;;;;;;;;;4927545;29;20217;-61
2022/04/08 12:53:54;;;;;;;1.13;0.63;;;;;;;;;;4922664;29;20036;-62
2022/04/08 12:56:19;;;;;;;1.50;0.60;;;;;;;;;;4922834;29;20063;-60
2022/04/08 12:58:47;;;;;;;1.92;0.70;;;;;;;;;;4923273;29;20032;-61
2022/04/08 13:01:12;;;;;;;5.03;0.80;;;;;;;;;;4921903;29;20249;-62
2022/04/08 13:03:38;;;;;;;5.70;0.85;;;;;;;;;;4924387;29;20048;-61
2022/04/08 13:06:04;;;;;;;2.97;0.93;;;;;;;;;;4925713;29;20031;-61
2022/04/08 13:08:30;;;;;;;3.55;0.80;;;;;;;;;;4922658;29;20091;-61
2022/04/08 13:10:56;;;;;;;2.45;0.70;;;;;;;;;;4923993;29;20228;-61
2022/04/08 13:13:25;;;;;;;2.47;1.17;;;;;;;;;;4921334;29;20337;-61
2022/04/08 13:15:50;;;;;;;3.05;0.80;;;;;;;;;;4920304;29;20100;-61
2022/04/08 13:18:16;;;;;;;1.58;0.80;;;;;;;;;;4923826;29;20103;-60
2022/04/08 13:20:43;;;;;;;1.65;0.43;;;;;;;;;;4921713;29;20024;-60
2022/04/08 13:23:09;;;;;;;1.70;0.32;;;;;;;;;;4923991;29;20036;-61
2022/04/08 13:25:35;;;;;;;1.52;0.47;;;;;;;;;;4925935;29;20123;-61
2022/04/08 13:28:00;;;;;;;1.10;0.70;;;;;;;;;;4924824;29;20360;-61
2022/04/08 13:30:26;;;;;;;1.40;0.30;;;;;;;;;;4921952;29;20096;-61
2022/04/08 13:32:52;;;;;;;0.95;0.30;;;;;;;;;;4924876;29;20099;-61
2022/04/08 13:35:18;;;;;;;2.53;0.20;;;;;;;;;;4924381;29;20031;-60
2022/04/08 13:37:43;;;;;;;0.73;0.47;;;;;;;;;;4923593;29;20035;-62
2022/04/08 13:40:09;;;;;;;1.00;0.20;;;;;;;;;;4921626;29;20086;-62
2022/04/08 13:42:35;;;;;;;1.50;0.50;;;;;;;;;;4923624;29;20028;-62
2022/04/08 13:45:00;;;;;;;0.85;0.32;;;;;;;;;;4922770;29;20078;-62
2022/04/08 13:47:25;;;;;;;0.47;0.20;;;;;;;;;;4923260;29;20047;-62
2022/04/08 13:49:51;;;;;;;0.50;0.30;;;;;;;;;;4923196;29;20043;-60
2022/04/08 13:52:17;;;;;;;0.90;0.20;;;;;;;;;;4917020;29;20036;-61
2022/04/08 13:54:42;;;;;;;0.70;0.22;;;;;;;;;;4922285;29;20028;-60
2022/04/08 13:57:08;;;;;;;0.15;0.15;;;;;;;;;;4921548;29;20083;-62
2022/04/08 13:59:33;;;;;;;0.47;0.15;;;;;;;;;;4924504;29;20091;-62
2022/04/08 14:01:59;;;;;;;0.30;0.30;;;;;;;;;;4918339;29;20042;-62
2022/04/08 14:04:24;;;;;;;0.20;0.20;;;;;;;;;;4921233;29;20033;-61
2022/04/08 14:06:50;;;;;;;0.30;0.20;;;;;;;;;;4920089;29;20028;-61
2022/04/08 14:09:15;;;;;;;0.20;0.20;;;;;;;;;;4918311;29;20032;-61
2022/04/08 14:11:41;;;;;;;0.30;0.15;;;;;;;;;;4924815;29;20117;-59
2022/04/08 14:14:06;;;;;;;0.28;0.20;;;;;;;;;;4928145;29;20028;-62
2022/04/08 14:16:32;;;;;;;0.43;0.13;;;;;;;;;;4919982;29;20062;-62
2022/04/08 14:18:57;;;;;;;0.45;0.10;;;;;;;;;;4925872;29;20040;-62
2022/04/08 14:21:24;;;;;;;0.43;0.25;;;;;;;;;;4919154;29;20404;-62
2022/04/08 14:23:49;;;;;;;0.10;0.00;;;;;;;;;;4924942;29;20032;-62
2022/04/08 14:26:15;;;;;;;0.20;0.15;;;;;;;;;;4923420;29;20035;-61
2022/04/08 14:28:40;;;;;;;0.77;0.20;;;;;;;;;;4923269;29;20024;-62
2022/04/08 14:31:06;;;;;;;0.20;0.10;;;;;;;;;;4925184;29;20067;-60
2022/04/08 14:33:31;;;;;;;0.10;0.10;;;;;;;;;;4923473;29;20112;-61
2022/04/08 14:36:01;;;;;;;0.10;0.10;;;;;;;;;;4927071;29;20043;-62
2022/04/08 14:38:26;;;;;;;1.00;0.20;;;;;;;;;;4917399;29;20077;-66
2022/04/08 14:40:54;;;;;;;0.57;0.20;;;;;;;;;;4922888;29;20028;-61